Flight Track Log - Related Links

Times and Time Zones

All times are in EDT time to prevent confusion due to time zone crossing. See the DAL1020 flight status page for this flight to view local times or setup timezone preferences in your user account.

Time Position Orientation Groundspeed Altitude Reporting Facility
EDT Latitude Longitude Course Direction KTS MPH feet Rate Location/Type
Wed 04:39:51 PM 61.1730 -149.9850 335° Northwest 2 2  Level FlightAware ADS-B
Wed 04:40:09 PM 61.1740 -149.9860 334° Northwest 13 15 142 Level FlightAware ADS-B
Wed 04:42:00 PM 61.0767 -149.5435 109° East  Level FlightAware Approximate
Wed 04:43:00 PM 61.0334 -149.2999 109° East  Level FlightAware Approximate
Wed 04:44:00 PM 60.9871 -149.0589 113° Southeast  Level FlightAware Approximate
Wed 04:44:43 PM 61.1740 -149.9870 113° Southeast 24 28  Level FlightAware ADS-B
Wed 04:45:30 PM 61.1730 -149.9930 251° West 25 29 305 Level FlightAware ADS-B
Wed 04:45:56 PM 61.1720 -149.9920 154° Southeast 20 23 373 Level FlightAware ADS-B
Wed 04:47:26 PM 61.1720 -149.9990 270° West 20 23 426 Level FlightAware ADS-B
Wed 04:48:02 PM 61.1740 -150.0000 346° North 61 70 839 Level FlightAware ADS-B
Wed 04:48:30 PM 61.1890 -150.0090 344° North 1,368 Level FlightAware ADS-B
Wed 04:48:59 PM 61.2120 -150.0250 341° North 177 204 1,300 1,846 Climbing FlightAware ADS-B
Wed 04:49:22 PM 61.2280 -150.0500 323° Northwest 206 237 1,600 933 Climbing FlightAware ADS-B
Wed 04:49:44 PM 61.2460 -150.0810 320° Northwest 237 273 2,000 1,647 Climbing FlightAware ADS-B
Wed 04:50:13 PM 61.2710 -150.1230 321° Northwest 250 288 3,000 2,217 Climbing FlightAware ADS-B
Wed 04:50:30 PM 61.2860 -150.1500 319° Northwest 253 291 3,700 2,634 Climbing FlightAware ADS-B
Wed 04:50:54 PM 61.3130 -150.1690 341° North 255 293 4,800 2,471 Climbing FlightAware ADS-B
Wed 04:51:21 PM 61.3400 -150.1430 25° Northeast 256 295 5,800 2,093 Climbing FlightAware ADS-B
Wed 04:51:37 PM 61.3490 -150.1080 62° Northeast 255 293 6,300 2,129 Climbing FlightAware ADS-B
Wed 04:51:52 PM 61.3480 -150.0710 93° East 252 290 6,900 2,432 Climbing FlightAware ADS-B
Wed 04:52:14 PM 61.3440 -150.0170 99° East 255 293 7,800 2,143 Climbing FlightAware ADS-B
Wed 04:52:48 PM 61.3380 -149.9320 98° East 274 315 8,900 2,032 Climbing FlightAware ADS-B
Wed 04:53:16 PM 61.3330 -149.8580 98° East 282 325 9,900 1,562 Climbing FlightAware ADS-B
Wed 04:54:01 PM 61.3230 -149.7310 99° East 317 365 10,800 1,671 Climbing FlightAware ADS-B
Wed 04:54:35 PM 61.3150 -149.6260 99° East 319 367 12,100 1,737 Climbing FlightAware ADS-B
Wed 04:55:17 PM 61.3060 -149.4940 98° East 346 398 13,000 1,071 Climbing FlightAware ADS-B
Wed 04:55:59 PM 61.2920 -149.3500 101° East 379 436 13,600 1,247 Climbing FlightAware ADS-B
Wed 04:56:34 PM 61.2760 -149.2280 105° East 388 447 14,600 1,737 Climbing FlightAware ADS-B
Wed 04:57:15 PM 61.2550 -149.0780 106° East 396 456 15,800 1,765 Climbing FlightAware ADS-B
Wed 04:57:59 PM 61.2320 -148.9130 106° East 406 467 17,100 1,643 Climbing FlightAware ADS-B
Wed 04:58:39 PM 61.2110 -148.7640 106° East 413 475 18,100 1,518 Climbing FlightAware ADS-B
Wed 04:59:22 PM 61.1870 -148.6020 107° East 421 484 19,200 1,421 Climbing FlightAware ADS-B
Wed 04:59:55 PM 61.1690 -148.4720 106° East 429 494 19,900 1,390 Climbing FlightAware ADS-B
Wed 05:00:44 PM 61.1400 -148.2790 107° East 437 503 21,100 1,385 Climbing FlightAware ADS-B
Wed 05:01:26 PM 61.1150 -148.1080 107° East 445 512 22,000 897 Climbing FlightAware ADS-B
Wed 05:02:11 PM 61.0910 -147.9440 107° East 448 516 22,400 300 Climbing FlightAware ADS-B
Wed 05:02:46 PM 61.0720 -147.8220 108° East 448 516 22,400  Level FlightAware ADS-B
Wed 05:03:36 PM 61.0470 -147.6480 106° East 448 516 22,400  Level FlightAware ADS-B
Wed 05:04:13 PM 61.0280 -147.5200 107° East 448 516 22,400  Level FlightAware ADS-B
Wed 05:04:49 PM 61.0090 -147.3940 107° East 448 516 22,400  Level FlightAware ADS-B
Wed 05:05:37 PM 60.9840 -147.2280 107° East 448 516 22,400 2,468 Level FlightAware ADS-B
Wed 05:06:53 PM 60.9000 -146.7500 107° East 480 552 27,500 2,715 Climbing Anchorage Center
Wed 05:07:54 PM 60.8500 -146.5000 112° Southeast 480 552 28,600 1,091 Climbing Anchorage Center
Wed 05:08:54 PM 60.8167 -146.2333 104° East 480 552 29,700 1,000 Climbing Anchorage Center
Wed 05:09:54 PM 60.7667 -145.9667 111° Southeast 490 564 30,600 942 Climbing Anchorage Center
Wed 05:10:55 PM 60.7167 -145.7000 111° Southeast 480 552 31,600 942 Climbing Anchorage Center
Wed 05:11:55 PM 60.6667 -145.4500 112° Southeast 480 552 32,500 694 Climbing Anchorage Center
Wed 05:12:56 PM 60.6333 -145.1833 104° East 480 552 33,000 248 Climbing Anchorage Center
Wed 05:13:56 PM 60.5833 -144.9167 111° Southeast 490 564 33,000  Level Anchorage Center
Wed 05:14:56 PM 60.5333 -144.6500 111° Southeast 490 564 33,000  Level Anchorage Center
Wed 05:15:57 PM 60.4833 -144.3833 111° Southeast 500 575 33,000  Level Anchorage Center
Wed 05:16:57 PM 60.4333 -144.1333 112° Southeast 490 564 33,000  Level Anchorage Center
Wed 05:17:57 PM 60.3833 -143.8667 111° Southeast 490 564 33,000  Level Anchorage Center
Wed 05:18:58 PM 60.3333 -143.6000 111° Southeast 490 564 33,000  Level Anchorage Center
Wed 05:19:58 PM 60.2833 -143.3500 112° Southeast 500 575 33,000  Level Anchorage Center
Wed 05:20:58 PM 60.2333 -143.0833 111° Southeast 500 575 33,000  Level Anchorage Center
Wed 05:21:58 PM 60.1833 -142.8167 111° Southeast 490 564 33,000  Level Anchorage Center
Wed 05:22:59 PM 60.1333 -142.5500 111° Southeast 500 575 33,000  Level Anchorage Center
Wed 05:23:59 PM 60.0833 -142.3000 112° Southeast 490 564 33,000  Level Anchorage Center
Wed 05:24:59 PM 60.0333 -142.0500 112° Southeast 500 575 33,000  Level Anchorage Center
Wed 05:25:59 PM 59.9833 -141.8000 112° Southeast 500 575 33,000  Level Anchorage Center
Wed 05:27:00 PM 59.9167 -141.5333 116° Southeast 490 564 33,000  Level Anchorage Center
Wed 05:28:00 PM 59.8667 -141.2833 112° Southeast 490 564 33,000  Level Anchorage Center
Wed 05:29:01 PM 59.8167 -141.0333 112° Southeast 490 564 33,000  Level Anchorage Center
Wed 05:30:01 PM 59.7667 -140.7833 112° Southeast 490 564 33,000  Level Anchorage Center
Wed 05:31:01 PM 59.7000 -140.5333 118° Southeast 490 564 33,000  Level Anchorage Center
Wed 05:32:02 PM 59.6500 -140.2833 112° Southeast 480 552 33,000  Level Anchorage Center
Wed 05:33:02 PM 59.6000 -140.0333 111° Southeast 490 564 33,000  Level Anchorage Center
Wed 05:34:02 PM 59.5333 -139.7833 118° Southeast 500 575 33,000  Level Anchorage Center
Wed 05:35:03 PM 59.4833 -139.5500 113° Southeast 500 575 33,000  Level Anchorage Center
Wed 05:36:03 PM 59.4500 -139.2500 102° East 500 575 33,000  Level Anchorage Center
Wed 05:37:03 PM 59.4333 -138.9833 97° East 490 564 33,000  Level Anchorage Center
Wed 05:38:04 PM 59.4000 -138.7167 104° East 490 564 33,000  Level Anchorage Center
Wed 05:39:04 PM 59.3667 -138.4500 104° East 490 564 33,000  Level Anchorage Center
Wed 05:40:05 PM 59.3333 -138.1833 104° East 490 564 33,000  Level Anchorage Center
Wed 05:41:04 PM 59.3000 -137.9333 105° East 490 564 33,000  Level Anchorage Center
Wed 05:42:05 PM 59.2667 -137.6667 104° East 490 564 33,000  Level Anchorage Center
Wed 05:43:05 PM 59.2333 -137.4167 105° East 490 564 33,000  Level Anchorage Center
Wed 05:44:05 PM 59.2000 -137.1500 104° East 490 564 33,000  Level Anchorage Center
Wed 05:45:06 PM 59.1667 -136.9000 104° East 480 552 33,000  Level Anchorage Center
Wed 05:46:06 PM 59.1333 -136.6333 104° East 500 575 33,000  Level Anchorage Center
Wed 05:47:07 PM 59.1000 -136.3833 104° East 490 564 33,000  Level Anchorage Center
Wed 05:48:07 PM 59.0667 -136.1167 104° East 490 564 33,000  Level Anchorage Center
Wed 05:49:07 PM 59.0167 -135.8667 111° Southeast 490 564 33,000  Level Anchorage Center
Wed 05:50:08 PM 58.9833 -135.6167 104° East 480 552 33,000  Level Anchorage Center
Wed 05:51:08 PM 58.9500 -135.3333 103° East 490 564 33,000  Level Anchorage Center
Wed 05:52:08 PM 58.9167 -135.0833 104° East 490 564 33,000  Level Anchorage Center
Wed 05:53:09 PM 58.8667 -134.8333 111° Southeast 480 552 33,000  Level Anchorage Center
Wed 05:54:09 PM 58.8333 -134.5833 104° East 480 552 33,000  Level Anchorage Center
Wed 05:55:09 PM 58.8000 -134.3333 104° East 490 564 33,000  Level Anchorage Center
Wed 05:56:10 PM 58.7500 -134.0833 111° Southeast 480 552 33,000  Level Anchorage Center
Wed 05:58:00 PM 58.6868 -133.6361 108° East  Level FlightAware Approximate
Wed 06:05:00 PM 58.3961 -131.9651 108° East  Level FlightAware Approximate
Wed 06:06:00 PM 58.3528 -131.7287 109° East  Level FlightAware Approximate
Wed 06:07:00 PM 58.3091 -131.4929 110° East  Level FlightAware Approximate
Wed 06:08:00 PM 58.2645 -131.2579 110° East  Level FlightAware Approximate
Wed 06:09:00 PM 58.2195 -131.0235 110° East  Level FlightAware Approximate
Wed 06:10:00 PM 58.1741 -130.7897 110° East  Level FlightAware Approximate
Wed 06:11:00 PM 58.1283 -130.5565 110° East  Level FlightAware Approximate
Wed 06:12:00 PM 58.0820 -130.3239 111° Southeast  Level FlightAware Approximate
Wed 06:13:00 PM 58.0353 -130.0919 111° Southeast  Level FlightAware Approximate
Wed 06:14:00 PM 57.9886 -129.8602 111° Southeast  Level FlightAware Approximate
Wed 06:15:00 PM 57.9417 -129.6289 111° Southeast  Level FlightAware Approximate
Wed 06:16:00 PM 57.8945 -129.3983 111° Southeast  Level FlightAware Approximate
Wed 06:17:00 PM 57.8468 -129.1682 111° Southeast  Level FlightAware Approximate
Wed 06:18:00 PM 57.7987 -128.9388 111° Southeast  Level FlightAware Approximate
Wed 06:19:00 PM 57.7501 -128.7099 112° Southeast  Level FlightAware Approximate
Wed 06:20:00 PM 57.7012 -128.4817 112° Southeast  Level FlightAware Approximate
Wed 06:21:00 PM 57.6519 -128.2541 112° Southeast  Level FlightAware Approximate
Wed 06:22:00 PM 57.6021 -128.0271 112° Southeast  Level FlightAware Approximate
Wed 06:23:00 PM 57.5520 -127.8008 112° Southeast  Level FlightAware Approximate
Wed 06:24:00 PM 57.5014 -127.5751 113° Southeast  Level FlightAware Approximate
Wed 06:25:00 PM 57.4505 -127.3500 113° Southeast  Level FlightAware Approximate
Wed 06:26:00 PM 57.3991 -127.1255 113° Southeast  Level FlightAware Approximate
Wed 06:27:00 PM 57.3473 -126.9016 113° Southeast  Level FlightAware Approximate
Wed 06:28:00 PM 57.2952 -126.6784 113° Southeast  Level FlightAware Approximate
Wed 06:29:00 PM 57.2426 -126.4559 113° Southeast  Level FlightAware Approximate
Wed 06:30:00 PM 57.1895 -126.2341 114° Southeast  Level FlightAware Approximate
Wed 06:31:00 PM 57.1359 -126.0130 114° Southeast  Level FlightAware Approximate
Wed 06:32:00 PM 57.0819 -125.7926 114° Southeast  Level FlightAware Approximate
Wed 06:33:00 PM 57.0276 -125.5728 114° Southeast  Level FlightAware Approximate
Wed 06:34:00 PM 56.9728 -125.3536 115° Southeast  Level FlightAware Approximate
Wed 06:34:20 PM 56.8667 -125.0333 115° Southeast 520 598 33,000  Level Edmonton Center
Wed 06:35:00 PM 56.9177 -125.1351 115° Southeast  Level FlightAware Approximate
Wed 06:35:20 PM 56.8000 -124.8000 117° Southeast 510 587 33,000  Level Edmonton Center
Wed 06:36:00 PM 56.8625 -124.9169 115° Southeast  Level FlightAware Approximate
Wed 06:37:00 PM 56.8076 -124.6989 115° Southeast  Level FlightAware Approximate
Wed 06:38:00 PM 56.7522 -124.4816 115° Southeast  Level FlightAware Approximate
Wed 06:39:00 PM 56.6965 -124.2648 115° Southeast  Level FlightAware Approximate
Wed 06:40:48 PM 56.5190 -123.4160 117° Southeast 511 588 33,000  Level FlightAware ADS-B
Wed 06:41:15 PM 56.4950 -123.3270 116° Southeast 511 588 33,000  Level FlightAware ADS-B
Wed 06:41:59 PM 56.4560 -123.1830 116° Southeast 511 588 33,000  Level FlightAware ADS-B
Wed 06:42:48 PM 56.3930 -122.9570 117° Southeast 512 589 33,000  Level FlightAware ADS-B
Wed 06:43:38 PM 56.3410 -122.7710 117° Southeast 511 588 33,000  Level FlightAware ADS-B
Wed 06:44:21 PM 56.2990 -122.6190 116° Southeast 511 588 33,000  Level FlightAware ADS-B
Wed 06:44:59 PM 56.2550 -122.4630 117° Southeast 512 589 33,000  Level FlightAware ADS-B
Wed 06:45:48 PM 56.2110 -122.3030 116° Southeast 512 589 33,000  Level FlightAware ADS-B
Wed 06:46:20 PM 56.1333 -122.2667 116° Southeast 510 587 33,000  Level Edmonton Center
Wed 06:47:20 PM 56.0667 -122.0500 119° Southeast 510 587 33,000  Level Edmonton Center
Wed 06:48:20 PM 55.9833 -121.8000 121° Southeast 510 587 33,000  Level Edmonton Center
Wed 06:49:20 PM 55.9167 -121.5833 119° Southeast 500 575 33,000  Level Edmonton Center
Wed 06:50:20 PM 55.8667 -121.3667 112° Southeast 500 575 33,000  Level Edmonton Center
Wed 06:51:20 PM 55.7833 -121.1167 121° Southeast 510 587 33,000  Level Edmonton Center
Wed 06:52:20 PM 55.7333 -120.9167 114° Southeast 500 575 33,000  Level Edmonton Center
Wed 06:53:20 PM 55.6500 -120.7000 124° Southeast 510 587 33,000  Level Edmonton Center
Wed 06:54:20 PM 55.6000 -120.4833 112° Southeast 500 575 33,000  Level Edmonton Center
Wed 06:55:20 PM 55.5333 -120.2500 117° Southeast 500 575 33,000  Level Edmonton Center
Wed 06:56:20 PM 55.4500 -120.0333 124° Southeast 500 575 33,000  Level Edmonton Center
Wed 06:57:20 PM 55.3833 -119.8167 118° Southeast 500 575 33,000  Level Edmonton Center
Wed 06:58:20 PM 55.3167 -119.6167 120° Southeast 500 575 33,000  Level Edmonton Center
Wed 06:59:20 PM 55.2333 -119.3667 120° Southeast 500 575 33,000  Level Edmonton Center
Wed 07:05:22 PM 54.8480 -117.9940 120° Southeast 33,000  Level FlightAware ADS-B
Wed 07:06:57 PM 54.7310 -117.6700 122° Southeast 519 597 33,000  Level FlightAware ADS-B
Wed 07:07:42 PM 54.6740 -117.5120 122° Southeast 519 597 33,000  Level FlightAware ADS-B
Wed 07:08:23 PM 54.6220 -117.3720 123° Southeast 521 600 33,000  Level FlightAware ADS-B
Wed 07:09:02 PM 54.5710 -117.2330 122° Southeast 521 600 33,000  Level FlightAware ADS-B
Wed 07:10:12 PM 54.4770 -116.9790 122° Southeast 519 597 33,000  Level FlightAware ADS-B
Wed 07:10:49 PM 54.4370 -116.8690 122° Southeast 519 597 33,000  Level FlightAware ADS-B
Wed 07:11:37 PM 54.3670 -116.6850 123° Southeast 520 598 33,000  Level FlightAware ADS-B
Wed 07:12:17 PM 54.3150 -116.5480 123° Southeast 522 601 33,000  Level FlightAware ADS-B
Wed 07:12:52 PM 54.2720 -116.4350 123° Southeast 522 601 33,000  Level FlightAware ADS-B
Wed 07:13:37 PM 54.2090 -116.2690 123° Southeast 523 602 33,000  Level FlightAware ADS-B
Wed 07:14:30 PM 54.1440 -116.1000 123° Southeast 522 601 33,000  Level FlightAware ADS-B
Wed 07:15:07 PM 54.0920 -115.9660 123° Southeast 523 602 33,000  Level FlightAware ADS-B
Wed 07:15:47 PM 54.0380 -115.8270 123° Southeast 523 602 33,000  Level FlightAware ADS-B
Wed 07:16:27 PM 53.9830 -115.6870 124° Southeast 524 603 33,000  Level FlightAware ADS-B
Wed 07:17:07 PM 53.9310 -115.5530 123° Southeast 524 603 33,000  Level FlightAware ADS-B
Wed 07:17:52 PM 53.8720 -115.4040 124° Southeast 524 603 33,000  Level FlightAware ADS-B
Wed 07:18:37 PM 53.8060 -115.2400 124° Southeast 525 604 33,000  Level FlightAware ADS-B
Wed 07:19:17 PM 53.7520 -115.1050 124° Southeast 525 604 33,000  Level FlightAware ADS-B
Wed 07:19:57 PM 53.7010 -114.9760 124° Southeast 525 604 33,000  Level FlightAware ADS-B
Wed 07:20:32 PM 53.6490 -114.8480 124° Southeast 526 605 33,000  Level FlightAware ADS-B
Wed 07:21:17 PM 53.5880 -114.6970 124° Southeast 526 605 33,000  Level FlightAware ADS-B
Wed 07:21:57 PM 53.5320 -114.5610 125° Southeast 526 605 33,000  Level FlightAware ADS-B
Wed 07:22:37 PM 53.4780 -114.4280 124° Southeast 527 606 33,000  Level FlightAware ADS-B
Wed 07:23:22 PM 53.4170 -114.2800 125° Southeast 528 608 33,000  Level FlightAware ADS-B
Wed 07:24:02 PM 53.3600 -114.1420 125° Southeast 527 606 33,000  Level FlightAware ADS-B
Wed 07:24:47 PM 53.2970 -113.9920 125° Southeast 527 606 33,000  Level FlightAware ADS-B
Wed 07:25:27 PM 53.2430 -113.8580 124° Southeast 529 609 33,000  Level FlightAware ADS-B
Wed 07:25:52 PM 53.2150 -113.7720 119° Southeast 533 613 33,000  Level FlightAware ADS-B
Wed 07:26:37 PM 53.1730 -113.5940 111° Southeast 535 616 33,000  Level FlightAware ADS-B
Wed 07:27:17 PM 53.1390 -113.4460 111° Southeast 536 617 33,000  Level FlightAware ADS-B
Wed 07:28:02 PM 53.0990 -113.2690 111° Southeast 535 616 33,000 212 Level FlightAware ADS-B
Wed 07:28:42 PM 53.0630 -113.1120 111° Southeast 535 616 33,300 600 Climbing FlightAware ADS-B
Wed 07:29:22 PM 53.0270 -112.9590 111° Southeast 537 618 33,800 560 Climbing FlightAware ADS-B
Wed 07:29:57 PM 52.9960 -112.8250 111° Southeast 545 627 34,000 320 Climbing FlightAware ADS-B
Wed 07:30:37 PM 52.9620 -112.6830 112° Southeast 552 635 34,200 488 Climbing FlightAware ADS-B
Wed 07:31:23 PM 52.9190 -112.5010 111° Southeast 553 636 34,700 632 Climbing FlightAware ADS-B
Wed 07:31:53 PM 52.8900 -112.3800 112° Southeast 548 631 35,000 257 Climbing FlightAware ADS-B
Wed 07:32:33 PM 52.8500 -112.2180 112° Southeast 538 619 35,000  Level FlightAware ADS-B
Wed 07:33:18 PM 52.8080 -112.0450 112° Southeast 539 620 35,000  Level FlightAware ADS-B
Wed 07:33:58 PM 52.7740 -111.9040 112° Southeast 540 621 35,000  Level FlightAware ADS-B
Wed 07:34:33 PM 52.7370 -111.7570 113° Southeast 541 623 35,000  Level FlightAware ADS-B
Wed 07:34:58 PM 52.7140 -111.6640 112° Southeast 541 623 35,000  Level FlightAware ADS-B
Wed 07:35:33 PM 52.6810 -111.5310 112° Southeast 543 625 35,000  Level FlightAware ADS-B
Wed 07:36:08 PM 52.6490 -111.4030 112° Southeast 543 625 35,000  Level FlightAware ADS-B
Wed 07:36:43 PM 52.6130 -111.2640 113° Southeast 545 627 35,000  Level FlightAware ADS-B
Wed 07:37:47 PM 52.5560 -111.0380 112° Southeast 544 626 35,000  Level FlightAware ADS-B
Wed 07:38:42 PM 52.5040 -110.8330 113° Southeast 544 626 35,000  Level FlightAware ADS-B
Wed 07:39:38 PM 52.4480 -110.6240 114° Southeast 541 623 35,000  Level FlightAware ADS-B
Wed 07:40:53 PM 52.3710 -110.3300 113° Southeast 539 620 35,000  Level FlightAware ADS-B
Wed 07:41:32 PM 52.3380 -110.2060 113° Southeast 539 620 35,000  Level FlightAware ADS-B
Wed 07:42:20 PM 52.2990 -110.0520 112° Southeast 539 620 35,000  Level FlightAware ADS-B
Wed 07:42:56 PM 52.2690 -109.9380 113° Southeast 539 620 35,000  Level FlightAware ADS-B
Wed 07:43:31 PM 52.2400 -109.8260 113° Southeast 539 620 35,000  Level FlightAware ADS-B
Wed 07:44:08 PM 52.2090 -109.7080 113° Southeast 539 620 35,000  Level FlightAware ADS-B
Wed 07:44:43 PM 52.1800 -109.5970 113° Southeast 539 620 35,000  Level FlightAware ADS-B
Wed 07:45:20 PM 52.1490 -109.4790 113° Southeast 539 620 35,000  Level FlightAware ADS-B
Wed 07:45:57 PM 52.1190 -109.3620 113° Southeast 539 620 35,000  Level FlightAware ADS-B
Wed 07:46:43 PM 52.0810 -109.2150 113° Southeast 539 620 35,000  Level FlightAware ADS-B
Wed 07:47:20 PM 52.0500 -109.0980 113° Southeast 539 620 35,000  Level FlightAware ADS-B
Wed 07:48:08 PM 52.0100 -108.9460 113° Southeast 539 620 35,000  Level FlightAware ADS-B
Wed 07:48:44 PM 51.9800 -108.8320 113° Southeast 539 620 35,000  Level FlightAware ADS-B
Wed 07:50:07 PM 51.9120 -108.5690 113° Southeast 539 620 35,000  Level FlightAware ADS-B
Wed 07:50:44 PM 51.8810 -108.4520 113° Southeast 539 620 35,000  Level FlightAware ADS-B
Wed 07:51:27 PM 51.6500 -108.1167 113° Southeast 520 598 35,000  Level Winnipeg Center
Wed 07:56:44 PM 51.4040 -106.9670 113° Southeast 526 605 35,000  Level FlightAware ADS-B
Wed 07:57:20 PM 51.3620 -106.8320 116° Southeast 525 604 35,000  Level FlightAware ADS-B
Wed 07:58:01 PM 51.3150 -106.6840 117° Southeast 524 603 35,000  Level FlightAware ADS-B
Wed 07:58:50 PM 51.2650 -106.5260 117° Southeast 522 601 35,000  Level FlightAware ADS-B
Wed 07:59:39 PM 51.2080 -106.3450 117° Southeast 522 601 35,000  Level FlightAware ADS-B
Wed 08:00:18 PM 51.1670 -106.2150 117° Southeast 521 600 35,000  Level FlightAware ADS-B
Wed 08:01:03 PM 51.1150 -106.0550 117° Southeast 519 597 35,000  Level FlightAware ADS-B
Wed 08:01:41 PM 51.0740 -105.9280 117° Southeast 517 595 35,000  Level FlightAware ADS-B
Wed 08:02:21 PM 51.0300 -105.7930 117° Southeast 515 593 35,000  Level FlightAware ADS-B
Wed 08:03:03 PM 50.9780 -105.6340 117° Southeast 514 592 35,000  Level FlightAware ADS-B
Wed 08:03:42 PM 50.9410 -105.5210 117° Southeast 513 590 35,000  Level FlightAware ADS-B
Wed 08:04:23 PM 50.8960 -105.3830 117° Southeast 512 589 35,000  Level FlightAware ADS-B
Wed 08:05:01 PM 50.8560 -105.2640 118° Southeast 511 588 35,000  Level FlightAware ADS-B
Wed 08:05:45 PM 50.8080 -105.1200 118° Southeast 511 588 35,000  Level FlightAware ADS-B
Wed 08:06:21 PM 50.7690 -105.0050 118° Southeast 509 586 35,000  Level FlightAware ADS-B
Wed 08:07:03 PM 50.7130 -104.8390 118° Southeast 508 585 35,000  Level FlightAware ADS-B
Wed 08:07:49 PM 50.6730 -104.7150 117° Southeast 508 585 35,000  Level FlightAware ADS-B
Wed 08:08:30 PM 50.6260 -104.5690 117° Southeast 507 583 35,000  Level FlightAware ADS-B
Wed 08:09:11 PM 50.5830 -104.4360 117° Southeast 507 583 35,000  Level FlightAware ADS-B
Wed 08:09:44 PM 50.5470 -104.3250 117° Southeast 506 582 35,000  Level FlightAware ADS-B
Wed 08:10:30 PM 50.4940 -104.1660 118° Southeast 505 581 35,000  Level FlightAware ADS-B
Wed 08:11:35 PM 50.4290 -103.9680 117° Southeast 505 581 35,000  Level FlightAware ADS-B
Wed 08:11:55 PM 50.4060 -103.9000 118° Southeast 505 581 35,000  Level FlightAware ADS-B
Wed 08:12:42 PM 50.3590 -103.7600 118° Southeast 503 579 35,000  Level FlightAware ADS-B
Wed 08:13:20 PM 50.3190 -103.6390 117° Southeast 503 579 35,000  Level FlightAware ADS-B
Wed 08:14:18 PM 50.2510 -103.4390 118° Southeast 504 580 35,000  Level FlightAware ADS-B
Wed 08:15:02 PM 50.2080 -103.3100 117° Southeast 504 580 35,000  Level FlightAware ADS-B
Wed 08:16:02 PM 50.1450 -103.1240 118° Southeast 505 581 35,000  Level FlightAware ADS-B
Wed 08:16:39 PM 50.1120 -103.0210 117° Southeast 505 581 35,000  Level FlightAware ADS-B
Wed 08:17:39 PM 50.0580 -102.8560 117° Southeast 505 581 35,000  Level FlightAware ADS-B
Wed 08:18:15 PM 50.0250 -102.7570 117° Southeast 505 581 35,000  Level FlightAware ADS-B
Wed 08:19:03 PM 49.9320 -102.5050 120° Southeast 508 585 35,000  Level FlightAware ADS-B
Wed 08:19:39 PM 49.8990 -102.4060 117° Southeast 508 585 35,000  Level FlightAware ADS-B
Wed 08:20:26 PM 49.8560 -102.2760 117° Southeast 508 585 35,000  Level FlightAware ADS-B
Wed 08:21:20 PM 49.7820 -102.0420 116° Southeast 504 580 35,000  Level FlightAware ADS-B
Wed 08:22:05 PM 49.7350 -101.9010 117° Southeast 504 580 35,000  Level FlightAware ADS-B
Wed 08:22:47 PM 49.6890 -101.7640 117° Southeast 504 580 35,000  Level FlightAware ADS-B
Wed 08:23:23 PM 49.6500 -101.6480 117° Southeast 505 581 35,000  Level FlightAware ADS-B
Wed 08:24:03 PM 49.6080 -101.5220 117° Southeast 505 581 35,000  Level FlightAware ADS-B
Wed 08:24:39 PM 49.5690 -101.4060 117° Southeast 505 581 35,000  Level FlightAware ADS-B
Wed 08:25:21 PM 49.5230 -101.2720 118° Southeast 504 580 35,000  Level FlightAware ADS-B
Wed 08:26:03 PM 49.4790 -101.1420 117° Southeast 500 575 35,000  Level FlightAware ADS-B
Wed 08:26:29 PM 49.4520 -101.0640 118° Southeast 499 574 35,000  Level FlightAware ADS-B
Wed 08:27:11 PM 49.4060 -100.9280 117° Southeast 498 573 35,000  Level FlightAware ADS-B
Wed 08:27:55 PM 49.3600 -100.7940 118° Southeast 497 572 35,000  Level FlightAware ADS-B
Wed 08:28:31 PM 49.3210 -100.6840 119° Southeast 497 572 35,000  Level FlightAware ADS-B
Wed 08:29:07 PM 49.2810 -100.5670 118° Southeast 495 570 35,000  Level FlightAware ADS-B
Wed 08:29:54 PM 49.2310 -100.4240 118° Southeast 491 565 35,000  Level FlightAware ADS-B
Wed 08:30:27 PM 49.1950 -100.3230 119° Southeast 489 563 35,000  Level FlightAware ADS-B
Wed 08:31:11 PM 49.1480 -100.1880 118° Southeast 487 560 35,000  Level FlightAware ADS-B
Wed 08:31:47 PM 49.1090 -100.0780 118° Southeast 486 559 35,000  Level FlightAware ADS-B
Wed 08:32:23 PM 49.0720 -99.9720 118° Southeast 486 559 35,000  Level FlightAware ADS-B
Wed 08:33:01 PM 49.0320 -99.8610 119° Southeast 487 560 35,000  Level FlightAware ADS-B
Wed 08:33:45 PM 48.9860 -99.7320 118° Southeast 488 562 35,000  Level FlightAware ADS-B
Wed 08:34:22 PM 48.9430 -99.6140 119° Southeast 486 559 35,000  Level FlightAware ADS-B
Wed 08:35:04 PM 48.8970 -99.4880 119° Southeast 483 556 35,000  Level FlightAware ADS-B
Wed 08:35:36 PM 48.8650 -99.3970 118° Southeast 483 556 35,000  Level FlightAware ADS-B
Wed 08:36:23 PM 48.8120 -99.2550 120° Southeast 482 555 35,000  Level FlightAware ADS-B
Wed 08:37:08 PM 48.7570 -99.1290 123° Southeast 481 554 35,000  Level FlightAware ADS-B
Wed 08:37:50 PM 48.7020 -99.0130 126° Southeast 480 552 35,000  Level FlightAware ADS-B
Wed 08:38:30 PM 48.6490 -98.9040 126° Southeast 478 550 35,000  Level FlightAware ADS-B
Wed 08:39:08 PM 48.5980 -98.8020 127° Southeast 478 550 35,000  Level FlightAware ADS-B
Wed 08:39:48 PM 48.5470 -98.6980 127° Southeast 476 548 35,000  Level FlightAware ADS-B
Wed 08:40:32 PM 48.4890 -98.5800 127° Southeast 475 547 35,000  Level FlightAware ADS-B
Wed 08:41:08 PM 48.4410 -98.4840 127° Southeast 475 547 35,000  Level FlightAware ADS-B
Wed 08:41:47 PM 48.3910 -98.3830 127° Southeast 475 547 35,000  Level FlightAware ADS-B
Wed 08:42:28 PM 48.3360 -98.2740 127° Southeast 475 547 35,000  Level FlightAware ADS-B
Wed 08:43:09 PM 48.2820 -98.1670 127° Southeast 476 548 35,000  Level FlightAware ADS-B
Wed 08:43:48 PM 48.2300 -98.0610 126° Southeast 476 548 35,000  Level FlightAware ADS-B
Wed 08:44:28 PM 48.1780 -97.9580 127° Southeast 477 549 35,000  Level FlightAware ADS-B
Wed 08:45:12 PM 48.1180 -97.8400 127° Southeast 476 548 35,000  Level FlightAware ADS-B
Wed 08:45:50 PM 48.0670 -97.7400 127° Southeast 477 549 35,000 -366 Level FlightAware ADS-B
Wed 08:46:34 PM 48.0090 -97.6270 127° Southeast 473 544 34,500 -1,171 Descending FlightAware ADS-B
Wed 08:47:12 PM 47.9580 -97.5270 127° Southeast 478 550 33,400 -1,674 Descending FlightAware ADS-B
Wed 08:48:00 PM 47.8940 -97.4030 128° Southeast 481 554 32,100 -1,571 Descending FlightAware ADS-B
Wed 08:48:36 PM 47.8450 -97.3080 128° Southeast 480 552 31,200 -892 Descending FlightAware ADS-B
Wed 08:49:14 PM 47.7940 -97.2090 127° Southeast 478 550 31,000 -176 Descending FlightAware ADS-B
Wed 08:49:44 PM 47.7540 -97.1310 127° Southeast 479 551 31,000  Level FlightAware ADS-B
Wed 08:50:22 PM 47.7010 -97.0300 128° Southeast 480 552 31,000  Level FlightAware ADS-B
Wed 08:51:02 PM 47.6470 -96.9260 128° Southeast 479 551 31,000  Level FlightAware ADS-B
Wed 08:51:42 PM 47.5950 -96.8260 128° Southeast 479 551 31,000  Level FlightAware ADS-B
Wed 08:52:22 PM 47.5400 -96.7220 128° Southeast 480 552 31,000  Level FlightAware ADS-B
Wed 08:52:58 PM 47.4910 -96.6290 128° Southeast 479 551 31,000  Level FlightAware ADS-B
Wed 08:53:57 PM 47.4150 -96.4860 128° Southeast 478 550 31,000  Level FlightAware ADS-B
Wed 08:54:52 PM 47.3420 -96.3490 128° Southeast 476 548 31,000  Level FlightAware ADS-B
Wed 08:55:30 PM 47.2990 -96.2660 127° Southeast 476 548 31,000  Level FlightAware ADS-B
Wed 08:56:19 PM 47.2220 -96.1240 129° Southeast 476 548 31,000  Level FlightAware ADS-B
Wed 08:57:06 PM 47.1510 -95.9930 129° Southeast 476 548 31,000  Level FlightAware ADS-B
Wed 08:57:44 PM 47.1000 -95.9000 129° Southeast 475 547 31,000  Level FlightAware ADS-B
Wed 08:58:29 PM 47.0480 -95.8020 128° Southeast 475 547 31,000  Level FlightAware ADS-B
Wed 08:59:05 PM 47.0070 -95.7240 128° Southeast 475 547 31,000  Level FlightAware ADS-B
Wed 08:59:41 PM 46.9650 -95.6470 129° Southeast 475 547 31,000  Level FlightAware ADS-B
Wed 09:00:17 PM 46.9240 -95.5690 128° Southeast 475 547 31,000  Level FlightAware ADS-B
Wed 09:01:05 PM 46.8690 -95.4660 128° Southeast 475 547 31,000  Level FlightAware ADS-B
Wed 09:01:41 PM 46.8270 -95.3880 128° Southeast 475 547 31,000  Level FlightAware ADS-B
Wed 09:02:29 PM 46.7720 -95.2850 128° Southeast 475 547 31,000  Level FlightAware ADS-B
Wed 09:03:05 PM 46.7310 -95.2080 128° Southeast 475 547 31,000  Level FlightAware ADS-B
Wed 09:03:53 PM 46.6750 -95.1050 128° Southeast 475 547 31,000  Level FlightAware ADS-B
Wed 09:04:29 PM 46.6340 -95.0270 127° Southeast 475 547 31,000  Level FlightAware ADS-B
Wed 09:05:30 PM 46.5640 -94.8970 128° Southeast 475 547 31,000  Level FlightAware ADS-B
Wed 09:06:08 PM 46.4050 -94.6500 133° Southeast 473 544 31,000  Level FlightAware ADS-B
Wed 09:06:46 PM 46.3610 -94.5730 130° Southeast 473 544 31,000 -1,378 Level FlightAware ADS-B
Wed 09:07:22 PM 46.3050 -94.4770 130° Southeast 471 542 29,300 -3,000 Descending FlightAware ADS-B
Wed 09:08:04 PM 46.2430 -94.3750 131° Southeast 470 541 27,100 -2,765 Descending FlightAware ADS-B
Wed 09:09:04 PM 46.1530 -94.2490 136° Southeast 462 532 24,600 -2,654 Descending FlightAware ADS-B
Wed 09:09:48 PM 46.0810 -94.1530 137° Southeast 443 510 22,500 -2,753 Descending FlightAware ADS-B
Wed 09:10:29 PM 46.0250 -94.0770 137° Southeast 437 503 20,700 -1,426 Descending FlightAware ADS-B
Wed 09:11:29 PM 45.9460 -93.9720 137° Southeast 433 498 20,100 -2,270 Descending FlightAware ADS-B
Wed 09:12:20 PM 45.8600 -93.8590 138° Southeast 418 481 16,500 -3,067 Descending FlightAware ADS-B
Wed 09:12:59 PM 45.8060 -93.7880 137° Southeast 414 476 15,500 -1,643 Descending FlightAware ADS-B
Wed 09:13:44 PM 45.7430 -93.7040 137° Southeast 400 460 14,200 -2,100 Descending FlightAware ADS-B
Wed 09:14:19 PM 45.6980 -93.6450 138° Southeast 397 457 12,700 -2,325 Descending FlightAware ADS-B
Wed 09:15:04 PM 45.6350 -93.5620 137° Southeast 395 455 11,100 -1,200 Descending FlightAware ADS-B
Wed 09:15:44 PM 45.5780 -93.4940 140° Southeast 393 452 11,000 -71 Descending FlightAware ADS-B
Wed 09:16:28 PM 45.5070 -93.4480 156° South 347 399 11,000 -150 Level FlightAware ADS-B
Wed 09:17:04 PM 45.4570 -93.4220 160° South 317 365 10,800 -711 Descending FlightAware ADS-B
Wed 09:17:44 PM 45.4010 -93.4080 170° South 300 345 10,100 -1,091 Descending FlightAware ADS-B
Wed 09:17:59 PM 45.3800 -93.4070 178° South 297 342 9,800 -1,333 Descending FlightAware ADS-B
Wed 09:18:29 PM 45.3390 -93.4040 177° South 291 335 9,100 -1,418 Descending FlightAware ADS-B
Wed 09:18:54 PM 45.3060 -93.4020 178° South 289 333 8,500 -1,300 Descending FlightAware ADS-B
Wed 09:19:29 PM 45.2590 -93.3990 177° South 283 326 7,800 -840 Descending FlightAware ADS-B
Wed 09:19:44 PM 45.2400 -93.3980 178° South 269 310 7,800 -133 Level FlightAware ADS-B
Wed 09:20:14 PM 45.2050 -93.3950 177° South 241 277 7,700 -109 Descending FlightAware ADS-B
Wed 09:20:39 PM 45.1820 -93.3920 175° South 241 277 7,700 -1,050 Level FlightAware ADS-B
Wed 09:20:54 PM 45.1650 -93.3760 146° Southeast 224 258 7,000 -2,200 Descending FlightAware ADS-B
Wed 09:21:09 PM 45.1510 -93.3660 153° Southeast 224 258 6,600 -1,714 Descending FlightAware ADS-B
Wed 09:21:29 PM 45.1320 -93.3540 156° South 227 261 6,000 -1,680 Descending FlightAware ADS-B
Wed 09:21:59 PM 45.1030 -93.3340 154° Southeast 227 261 5,200 -1,527 Descending FlightAware ADS-B
Wed 09:22:24 PM 45.0810 -93.3200 156° South 225 259 4,600 -982 Descending FlightAware ADS-B
Wed 09:22:54 PM 45.0520 -93.3000 154° Southeast 205 236 4,300 -545 Descending FlightAware ADS-B
Wed 09:23:19 PM 45.0310 -93.2870 156° South 183 211 4,100 -585 Descending FlightAware ADS-B
Wed 09:23:35 PM 45.0200 -93.2800 156° South 177 204 3,900 -1,043 Descending FlightAware ADS-B
Wed 09:24:05 PM 44.9990 -93.2610 147° Southeast 171 197 3,300 -1,300 Descending FlightAware ADS-B
Wed 09:24:35 PM 44.9820 -93.2380 136° Southeast 164 189 2,600 -1,091 Descending FlightAware ADS-B
Wed 09:25:00 PM 44.9710 -93.2190 129° Southeast 144 166 2,300 -764 Descending FlightAware ADS-B
Wed 09:25:30 PM 44.9610 -93.1960 122° Southeast 139 160 1,900 -750 Descending FlightAware ADS-B
Wed 09:25:40 PM 44.9570 -93.1880 125° Southeast 138 159 1,800 -750 Descending FlightAware ADS-B
Wed 09:26:10 PM 44.9470 -93.1650 122° Southeast 138 159 1,400 -667 Descending FlightAware ADS-B
Wed 09:26:34 PM 44.9400 -93.1480 120° Southeast 140 161 1,200 -514 Descending FlightAware ADS-B
Wed 09:26:45 PM 44.9360 -93.1390 122° Southeast 141 162 1,100 -162 Descending FlightAware ADS-B
Wed 09:27:11 PM 44.9280 -93.1220 124° Southeast 141 162 1,100  Level FlightAware ADS-B

Login

Don't have an account? Register now (free) for customized features, flight alerts, and more!